createdAt,value
2016-07-23T00:00:35.706Z,0
2016-07-23T00:01:36.240Z,0
2016-07-23T00:02:35.438Z,0
2016-07-23T00:03:35.185Z,0
2016-07-23T00:04:35.187Z,0
2016-07-23T00:05:35.181Z,0
2016-07-23T00:06:35.180Z,0
2016-07-23T00:07:35.178Z,0
2016-07-23T00:08:35.177Z,0
2016-07-23T00:09:35.172Z,0
2016-07-23T00:10:35.182Z,0
2016-07-23T00:11:35.166Z,0
2016-07-23T00:12:35.174Z,0
2016-07-23T00:13:35.180Z,0
2016-07-23T00:14:35.187Z,0
2016-07-23T00:15:35.166Z,0
2016-07-23T00:16:35.160Z,0
2016-07-23T00:17:35.171Z,0
2016-07-23T00:18:35.851Z,0
2016-07-23T00:19:35.155Z,0
2016-07-23T00:20:35.153Z,0
2016-07-23T00:21:35.151Z,0
2016-07-23T00:22:35.154Z,0
2016-07-23T00:23:35.846Z,0
2016-07-23T00:24:35.143Z,0
2016-07-23T00:25:35.155Z,0
2016-07-23T00:26:35.141Z,0
2016-07-23T00:27:35.150Z,0
2016-07-23T00:28:35.137Z,0
2016-07-23T00:29:35.381Z,0
2016-07-23T00:30:35.143Z,0
2016-07-23T00:31:35.135Z,0
2016-07-23T00:32:35.138Z,0
2016-07-23T00:33:35.135Z,0
2016-07-23T00:34:35.141Z,0
2016-07-23T00:35:35.132Z,0
2016-07-23T00:36:35.127Z,0
2016-07-23T00:37:35.122Z,0
2016-07-23T00:38:35.121Z,0
2016-07-23T00:39:35.114Z,0
2016-07-23T00:40:35.120Z,0
2016-07-23T00:41:35.120Z,0
2016-07-23T00:42:36.634Z,0
2016-07-23T00:44:37.733Z,0
2016-07-23T00:45:36.040Z,0
2016-07-23T00:46:35.230Z,0
2016-07-23T00:47:35.105Z,0
2016-07-23T00:48:35.106Z,0
2016-07-23T00:49:35.103Z,0
2016-07-23T00:50:35.100Z,0
2016-07-23T00:52:36.590Z,0
2016-07-23T00:53:35.717Z,0
2016-07-23T00:54:36.716Z,0
2016-07-23T00:55:35.091Z,0
2016-07-23T00:56:35.092Z,0
2016-07-23T00:57:35.085Z,0
2016-07-23T00:58:35.505Z,0
2016-07-23T00:59:35.107Z,0
2016-07-23T01:00:35.087Z,0
2016-07-23T01:01:35.083Z,0
2016-07-23T01:02:35.076Z,0
2016-07-23T01:03:35.080Z,0
2016-07-23T01:04:35.072Z,0
2016-07-23T01:05:35.072Z,0
2016-07-23T01:06:35.068Z,0
2016-07-23T01:07:35.620Z,0
2016-07-23T01:08:35.281Z,0
2016-07-23T01:09:50.736Z,0
2016-07-23T01:10:35.061Z,0
2016-07-23T01:11:35.066Z,0
2016-07-23T01:12:35.809Z,0
2016-07-23T01:13:35.059Z,0
2016-07-23T01:14:35.058Z,0
2016-07-23T01:15:35.055Z,0
2016-07-23T01:16:36.004Z,0
2016-07-23T01:17:50.519Z,0
2016-07-23T01:18:35.658Z,0
2016-07-23T01:19:35.043Z,0
2016-07-23T01:20:35.055Z,0
2016-07-23T01:21:35.051Z,0
2016-07-23T01:22:35.345Z,0
2016-07-23T01:23:35.036Z,0
2016-07-23T01:24:35.036Z,0
2016-07-23T01:25:35.042Z,0
2016-07-23T01:26:35.034Z,0
2016-07-23T01:27:35.030Z,0
2016-07-23T01:28:35.027Z,0
2016-07-23T01:29:35.029Z,0
2016-07-23T01:30:35.026Z,0
2016-07-23T01:31:35.023Z,0
2016-07-23T01:32:35.024Z,0
2016-07-23T01:33:35.029Z,0
2016-07-23T01:34:35.018Z,0
2016-07-23T01:35:35.022Z,0
2016-07-23T01:36:35.008Z,0
2016-07-23T01:37:35.008Z,0
2016-07-23T01:38:35.013Z,0
2016-07-23T01:39:39.662Z,0
2016-07-23T01:40:35.008Z,0
2016-07-23T01:41:35.003Z,0
2016-07-23T01:42:35.818Z,0
2016-07-23T01:43:35.010Z,0
2016-07-23T01:44:34.988Z,0
2016-07-23T01:45:34.997Z,0
2016-07-23T01:46:34.993Z,0
2016-07-23T01:47:34.996Z,0
2016-07-23T01:48:34.985Z,0
2016-07-23T01:49:34.983Z,0
2016-07-23T01:50:34.980Z,0
2016-07-23T01:51:35.676Z,0
2016-07-23T01:52:34.983Z,0
2016-07-23T01:53:34.976Z,0
2016-07-23T01:54:34.973Z,0
2016-07-23T01:55:34.968Z,0
2016-07-23T01:56:34.963Z,0
2016-07-23T01:57:34.970Z,0
2016-07-23T01:58:34.963Z,0
2016-07-23T01:59:34.959Z,0
2016-07-23T02:00:34.952Z,0
2016-07-23T02:02:36.551Z,0
2016-07-23T02:03:35.850Z,0
2016-07-23T02:04:35.852Z,0
2016-07-23T02:05:35.569Z,0
2016-07-23T02:06:34.940Z,0
2016-07-23T02:07:35.352Z,0
2016-07-23T02:08:34.944Z,0
2016-07-23T02:09:34.931Z,0
2016-07-23T02:11:51.879Z,0
2016-07-23T02:12:36.540Z,0
2016-07-23T02:13:34.990Z,0
2016-07-23T02:14:35.184Z,0
2016-07-23T02:15:34.933Z,0
2016-07-23T02:16:34.925Z,0
2016-07-23T02:17:34.922Z,0
2016-07-23T02:18:34.923Z,0
2016-07-23T02:19:34.910Z,0
2016-07-23T02:20:34.907Z,0
2016-07-23T02:21:34.900Z,0
2016-07-23T02:22:34.910Z,0
2016-07-23T02:23:34.901Z,4
2016-07-23T02:24:34.903Z,4
2016-07-23T02:25:36.107Z,4
2016-07-23T02:26:50.859Z,0
2016-07-23T02:27:50.761Z,4
2016-07-23T02:28:35.293Z,4
2016-07-23T02:29:36.035Z,4
2016-07-23T02:30:34.887Z,4
2016-07-23T02:31:35.577Z,4
2016-07-23T02:32:34.877Z,4
2016-07-23T02:33:34.880Z,8
2016-07-23T02:34:49.798Z,8
2016-07-23T02:35:49.785Z,8
2016-07-23T02:36:35.318Z,8
2016-07-23T02:37:34.864Z,8
2016-07-23T02:38:35.224Z,8
2016-07-23T02:39:34.871Z,12
2016-07-23T02:40:34.861Z,12
2016-07-23T02:41:34.852Z,16
2016-07-23T02:42:34.854Z,20
2016-07-23T02:43:34.851Z,20
2016-07-23T02:44:34.854Z,20
2016-07-23T02:45:34.854Z,28
2016-07-23T02:46:35.536Z,32
2016-07-23T02:47:35.444Z,36
2016-07-23T02:48:34.839Z,36
2016-07-23T02:49:36.049Z,44
2016-07-23T02:50:34.837Z,52
2016-07-23T02:51:34.831Z,56
2016-07-23T02:52:34.827Z,64
2016-07-23T02:53:34.825Z,68
2016-07-23T02:54:34.827Z,80
2016-07-23T02:55:34.817Z,88
2016-07-23T02:56:34.816Z,100
2016-07-23T02:57:34.811Z,112
2016-07-23T02:58:34.814Z,120
2016-07-23T02:59:34.811Z,136
2016-07-23T03:00:34.809Z,144
2016-07-23T03:01:34.799Z,164
2016-07-23T03:02:34.801Z,180
2016-07-23T03:03:34.796Z,196
2016-07-23T03:04:34.798Z,216
2016-07-23T03:05:34.807Z,236
2016-07-23T03:06:34.790Z,260
2016-07-23T03:07:34.796Z,280
2016-07-23T03:08:34.789Z,304
2016-07-23T03:09:34.778Z,328
2016-07-23T03:10:34.783Z,356
2016-07-23T03:11:34.774Z,384
2016-07-23T03:12:34.774Z,412
2016-07-23T03:13:34.777Z,440
2016-07-23T03:14:34.765Z,472
2016-07-23T03:15:34.769Z,512
2016-07-23T03:16:34.759Z,544
2016-07-23T03:17:34.764Z,584
2016-07-23T03:18:34.752Z,620
2016-07-23T03:20:34.762Z,704
2016-07-23T03:21:37.244Z,752
2016-07-23T03:22:36.118Z,796
2016-07-23T03:23:34.740Z,840
2016-07-23T03:24:34.747Z,888
2016-07-23T03:25:34.742Z,940
2016-07-23T03:26:34.736Z,992
2016-07-23T03:27:34.728Z,1044
2016-07-23T03:28:36.862Z,1092
2016-07-23T03:29:36.375Z,1148
2016-07-23T03:30:35.806Z,1200
2016-07-23T03:31:35.210Z,1256
2016-07-23T03:32:36.362Z,1312
2016-07-23T03:33:34.711Z,1368
2016-07-23T03:34:34.715Z,1428
2016-07-23T03:35:35.095Z,1484
2016-07-23T03:36:34.700Z,1544
2016-07-23T03:37:34.704Z,1604
2016-07-23T03:38:34.695Z,1668
2016-07-23T03:39:34.697Z,1732
2016-07-23T03:40:35.382Z,1792
2016-07-23T03:41:34.689Z,1856
2016-07-23T03:42:34.693Z,1928
2016-07-23T03:43:35.737Z,2008
2016-07-23T03:44:36.483Z,2088
2016-07-23T03:45:50.300Z,2172
2016-07-23T03:46:35.468Z,2228
2016-07-23T03:47:34.877Z,2316
2016-07-23T03:48:35.221Z,2468
2016-07-23T03:49:35.220Z,2736
2016-07-23T03:50:34.671Z,3048
2016-07-23T03:51:34.664Z,3328
2016-07-23T03:52:36.363Z,3528
2016-07-23T03:53:35.809Z,3644
2016-07-23T03:54:35.558Z,3756
2016-07-23T03:55:34.656Z,3868
2016-07-23T03:56:34.647Z,3972
2016-07-23T03:57:35.247Z,4092
2016-07-23T03:58:34.659Z,4212
2016-07-23T03:59:34.644Z,4348
2016-07-23T04:00:34.636Z,4468
2016-07-23T04:01:34.634Z,4580
2016-07-23T04:02:34.640Z,4468
2016-07-23T04:03:34.631Z,4600
2016-07-23T04:04:35.332Z,4880
2016-07-23T04:05:34.631Z,4856
2016-07-23T04:06:34.626Z,4996
2016-07-23T04:07:34.634Z,5144
2016-07-23T04:08:34.620Z,5336
2016-07-23T04:09:34.638Z,5424
2016-07-23T04:10:34.631Z,5624
2016-07-23T04:11:34.617Z,6344
2016-07-23T04:12:34.625Z,7020
2016-07-23T04:13:34.619Z,7232
2016-07-23T04:14:34.623Z,7208
2016-07-23T04:15:34.616Z,7396
2016-07-23T04:16:34.615Z,7768
2016-07-23T04:17:34.625Z,8168
2016-07-23T04:18:34.629Z,8536
2016-07-23T04:19:34.628Z,8768
2016-07-23T04:20:34.625Z,8908
2016-07-23T04:21:34.620Z,8828
2016-07-23T04:22:34.643Z,8428
2016-07-23T04:23:34.628Z,8716
2016-07-23T04:24:34.630Z,9608
2016-07-23T04:25:34.631Z,9716
2016-07-23T04:26:34.639Z,8640
2016-07-23T04:27:34.644Z,8164
2016-07-23T04:28:34.640Z,9236
2016-07-23T04:29:34.641Z,10440
2016-07-23T04:30:34.744Z,10872
2016-07-23T04:31:34.650Z,10484
2016-07-23T04:32:34.665Z,10632
2016-07-23T04:33:34.651Z,11156
2016-07-23T04:34:34.663Z,11832
2016-07-23T04:35:34.661Z,12212
2016-07-23T04:36:34.670Z,12660
2016-07-23T04:37:51.461Z,12472
2016-07-23T04:38:36.680Z,12408
2016-07-23T04:39:36.537Z,13008
2016-07-23T04:40:36.311Z,13256
2016-07-23T04:41:35.729Z,13704
2016-07-23T04:42:35.977Z,14364
2016-07-23T04:43:34.708Z,14040
2016-07-23T04:44:34.713Z,14504
2016-07-23T04:45:34.708Z,15008
2016-07-23T04:47:36.241Z,15776
2016-07-23T04:48:34.926Z,15872
2016-07-23T04:49:35.315Z,16096
2016-07-23T04:50:35.192Z,15872
2016-07-23T04:51:35.965Z,15904
2016-07-23T04:52:34.754Z,15808
2016-07-23T04:53:34.763Z,15776
2016-07-23T04:54:34.771Z,16320
2016-07-23T04:55:34.771Z,17312
2016-07-23T04:56:34.779Z,17600
2016-07-23T04:57:34.787Z,18016
2016-07-23T04:58:34.793Z,17984
2016-07-23T04:59:34.798Z,18176
2016-07-23T05:00:34.806Z,17600
2016-07-23T05:01:50.137Z,17216
2016-07-23T05:02:35.871Z,17824
2016-07-23T05:03:35.528Z,19232
2016-07-23T05:04:35.454Z,19296
2016-07-23T05:06:34.958Z,19008
2016-07-23T05:07:35.662Z,19104
2016-07-23T05:08:34.878Z,18880
2016-07-23T05:09:35.028Z,18752
2016-07-23T05:10:34.900Z,18688
2016-07-23T05:11:37.099Z,17696
2016-07-23T05:12:36.365Z,18976
2016-07-23T05:13:34.913Z,20576
2016-07-23T05:14:35.375Z,20320
2016-07-23T05:15:35.081Z,21088
2016-07-23T05:16:34.940Z,22592
2016-07-23T05:17:34.954Z,23072
2016-07-23T05:18:34.957Z,21824
2016-07-23T05:19:34.976Z,22464
2016-07-23T05:20:34.977Z,22592
2016-07-23T05:21:34.987Z,21664
2016-07-23T05:22:35.000Z,21376
2016-07-23T05:23:35.015Z,21344
2016-07-23T05:24:35.016Z,22880
2016-07-23T05:25:35.030Z,23264
2016-07-23T05:26:35.039Z,22816
2016-07-23T05:27:35.047Z,24800
2016-07-23T05:28:35.068Z,25600
2016-07-23T05:29:35.077Z,27072
2016-07-23T05:30:35.092Z,26912
2016-07-23T05:31:35.091Z,24096
2016-07-23T05:32:35.103Z,25568
2016-07-23T05:33:35.117Z,27360
2016-07-23T05:34:35.120Z,28448
2016-07-23T05:35:35.133Z,29248
2016-07-23T05:36:35.148Z,28640
2016-07-23T05:37:35.159Z,26432
2016-07-23T05:38:35.176Z,25504
2016-07-23T05:39:35.185Z,28192
2016-07-23T05:40:35.201Z,28256
2016-07-23T05:41:35.203Z,28544
2016-07-23T05:42:35.219Z,26848
2016-07-23T05:43:35.230Z,24832
2016-07-23T05:44:35.242Z,26848
2016-07-23T05:45:35.249Z,27072
2016-07-23T05:46:35.264Z,30432
2016-07-23T05:47:35.290Z,28768
2016-07-23T05:48:35.294Z,27968
2016-07-23T05:49:35.299Z,28704
2016-07-23T05:50:35.317Z,30240
2016-07-23T05:51:35.326Z,31584
2016-07-23T05:52:35.346Z,29984
2016-07-23T05:53:35.349Z,29856
2016-07-23T05:54:35.382Z,29504
2016-07-23T05:55:38.188Z,28160
2016-07-23T05:56:36.710Z,27008
2016-07-23T05:57:35.488Z,26272
2016-07-23T05:58:36.212Z,29760
2016-07-23T05:59:36.504Z,31744
2016-07-23T06:00:35.473Z,33600
2016-07-23T06:01:36.127Z,36032
2016-07-23T06:02:36.013Z,35648
2016-07-23T06:03:35.526Z,31936
2016-07-23T06:04:35.490Z,33792
2016-07-23T06:06:37.187Z,35392
2016-07-23T06:07:35.521Z,36896
2016-07-23T06:08:35.811Z,37088
2016-07-23T06:09:35.549Z,39200
2016-07-23T06:10:36.404Z,40512
2016-07-23T06:11:35.572Z,42016
2016-07-23T06:12:35.593Z,42688
2016-07-23T06:13:35.602Z,43616
2016-07-23T06:14:35.607Z,42016
2016-07-23T06:15:35.619Z,39072
2016-07-23T06:16:35.645Z,40448
2016-07-23T06:17:35.650Z,41600
2016-07-23T06:18:35.663Z,42624
2016-07-23T06:19:35.684Z,44352
2016-07-23T06:20:37.103Z,46848
2016-07-23T06:21:36.761Z,49088
2016-07-23T06:22:35.719Z,48480
2016-07-23T06:23:36.331Z,50752
2016-07-23T06:24:36.543Z,48352
2016-07-23T06:25:35.766Z,47840
2016-07-23T06:26:36.090Z,50848
2016-07-23T06:27:35.793Z,53504
2016-07-23T06:28:35.813Z,52896
2016-07-23T06:29:36.915Z,51072
2016-07-23T06:30:37.028Z,51136
2016-07-23T06:31:36.498Z,54560
2016-07-23T06:32:36.061Z,50944
2016-07-23T06:33:36.425Z,50720
2016-07-23T06:34:35.888Z,49536
2016-07-23T06:35:35.902Z,50144
2016-07-23T06:36:35.923Z,54816
2016-07-23T06:37:35.945Z,51520
2016-07-23T06:38:35.947Z,46848
2016-07-23T06:39:35.967Z,45088
2016-07-23T06:40:35.982Z,47872
2016-07-23T06:41:35.997Z,52672
2016-07-23T06:42:36.017Z,56640
2016-07-23T06:43:36.034Z,56256
2016-07-23T06:44:36.043Z,57344
2016-07-23T06:45:36.066Z,55776
2016-07-23T06:46:36.076Z,55072
2016-07-23T06:47:36.109Z,55200
2016-07-23T06:48:36.110Z,57184
2016-07-23T06:49:36.128Z,55616
2016-07-23T06:50:36.140Z,53504
2016-07-23T06:51:36.152Z,51872
2016-07-23T06:52:36.171Z,54208
2016-07-23T06:53:36.185Z,53376
2016-07-23T06:54:36.208Z,43840
2016-07-23T06:55:36.221Z,43648
2016-07-23T06:56:36.250Z,42016
2016-07-23T06:57:36.266Z,42112
2016-07-23T06:58:36.274Z,40160
2016-07-23T06:59:36.293Z,39840
2016-07-23T07:00:36.304Z,37984
2016-07-23T07:01:36.325Z,37408
2016-07-23T07:02:36.344Z,36224
2016-07-23T07:03:36.350Z,36864
2016-07-23T07:04:36.367Z,34368
2016-07-23T07:05:36.389Z,37536
2016-07-23T07:06:36.403Z,40736
2016-07-23T07:07:36.418Z,40192
2016-07-23T07:08:36.434Z,43680
2016-07-23T07:09:36.448Z,39392
2016-07-23T07:10:36.462Z,42784
2016-07-23T07:11:36.488Z,39616
2016-07-23T07:12:36.492Z,46432
2016-07-23T07:13:36.511Z,48448
2016-07-23T07:14:38.405Z,45024
2016-07-23T07:15:37.954Z,45856
2016-07-23T07:16:36.562Z,49088
2016-07-23T07:17:37.365Z,49344
2016-07-23T07:18:37.119Z,47296
2016-07-23T07:19:36.586Z,46080
2016-07-23T07:20:36.892Z,41856
2016-07-23T07:21:36.625Z,43552
2016-07-23T07:22:36.648Z,45824
2016-07-23T07:23:37.732Z,43296
2016-07-23T07:24:38.083Z,44960
2016-07-23T07:25:38.018Z,46720
2016-07-23T07:26:38.639Z,44832
2016-07-23T07:27:36.909Z,43904
2016-07-23T07:28:37.405Z,39648
2016-07-23T07:29:36.726Z,37376
2016-07-23T07:30:36.841Z,37856
2016-07-23T07:31:36.754Z,39552
2016-07-23T07:32:36.767Z,41632
2016-07-23T07:33:36.782Z,39872
2016-07-23T07:34:36.799Z,39616
2016-07-23T07:35:36.808Z,36192
2016-07-23T07:36:36.817Z,36576
2016-07-23T07:37:36.833Z,38144
2016-07-23T07:38:37.194Z,39456
2016-07-23T07:39:52.740Z,37536
2016-07-23T07:41:37.078Z,39488
2016-07-23T07:42:37.557Z,38080
2016-07-23T07:43:37.461Z,38176
2016-07-23T07:44:36.928Z,39200
2016-07-23T07:45:36.942Z,37280
2016-07-23T07:46:36.948Z,35296
2016-07-23T07:47:37.807Z,33280
2016-07-23T07:48:37.620Z,33920
2016-07-23T07:49:37.443Z,34464
2016-07-23T07:50:52.468Z,36960
2016-07-23T07:52:52.257Z,41632
2016-07-23T07:53:37.026Z,47328
2016-07-23T07:54:37.041Z,49184
2016-07-23T07:55:37.051Z,42208
2016-07-23T07:56:37.764Z,48416
2016-07-23T07:57:37.085Z,54624
2016-07-23T07:58:37.087Z,56928
2016-07-23T07:59:37.106Z,61568
2016-07-23T08:00:37.114Z,61920
2016-07-23T08:01:37.131Z,64800
2016-07-23T08:02:37.139Z,62688
2016-07-23T08:03:37.149Z,59200
2016-07-23T08:04:37.161Z,60352
2016-07-23T08:05:37.180Z,62336
2016-07-23T08:06:37.194Z,63904
2016-07-23T08:07:37.196Z,66112
2016-07-23T08:08:37.228Z,70336
2016-07-23T08:09:37.227Z,78816
2016-07-23T08:10:37.237Z,80192
2016-07-23T08:11:37.258Z,81472
2016-07-23T08:12:37.275Z,87456
2016-07-23T08:13:37.287Z,86560
2016-07-23T08:14:37.296Z,89120
2016-07-23T08:15:37.314Z,90240
2016-07-23T08:16:37.329Z,87776
2016-07-23T08:17:37.341Z,85664
2016-07-23T08:18:37.350Z,83776
2016-07-23T08:19:37.380Z,81984
2016-07-23T08:20:37.383Z,84320
2016-07-23T08:21:37.418Z,84128
2016-07-23T08:22:37.413Z,78656
2016-07-23T08:23:37.429Z,69088
2016-07-23T08:24:37.452Z,69888
2016-07-23T08:25:37.469Z,64352
2016-07-23T08:26:37.483Z,57056
2016-07-23T08:27:37.502Z,37312
2016-07-23T08:28:37.516Z,43776
2016-07-23T08:29:37.531Z,54432
2016-07-23T08:30:37.655Z,63936
2016-07-23T08:31:37.566Z,62240
2016-07-23T08:32:39.018Z,66432
2016-07-23T08:33:39.562Z,71296
2016-07-23T08:34:39.984Z,74016
2016-07-23T08:35:38.874Z,73888
2016-07-23T08:36:37.655Z,67648
2016-07-23T08:37:37.666Z,70496
2016-07-23T08:38:38.452Z,67424
2016-07-23T08:39:37.701Z,73920
2016-07-23T08:40:37.712Z,79520
2016-07-23T08:41:40.196Z,70528
2016-07-23T08:43:38.784Z,73216
2016-07-23T08:44:38.485Z,68640
2016-07-23T08:45:39.398Z,66496
2016-07-23T08:46:37.821Z,68192
2016-07-23T08:47:37.848Z,70144
2016-07-23T08:48:37.845Z,63328
2016-07-23T08:49:37.873Z,59040
2016-07-23T08:50:37.884Z,64160
2016-07-23T08:51:37.902Z,63712
2016-07-23T08:52:37.926Z,65408
2016-07-23T08:53:37.937Z,61056
2016-07-23T08:54:37.949Z,52320
2016-07-23T08:55:37.965Z,51936
2016-07-23T08:56:53.550Z,36128
2016-07-23T08:58:07.839Z,18848
2016-07-23T08:58:54.637Z,18048
2016-07-23T09:00:52.962Z,17824
2016-07-23T09:01:38.059Z,17856
2016-07-23T09:02:38.062Z,17920
2016-07-23T09:03:38.086Z,17888
2016-07-23T09:04:38.197Z,17696
2016-07-23T09:05:38.507Z,17504
2016-07-23T09:06:39.577Z,17248
2016-07-23T09:07:53.601Z,16756
2016-07-23T09:08:53.721Z,16460
2016-07-23T09:09:53.081Z,16192
2016-07-23T09:10:38.671Z,15956
2016-07-23T09:11:38.175Z,15672
2016-07-23T09:12:38.190Z,15484
2016-07-23T09:13:38.199Z,15380
2016-07-23T09:14:38.211Z,15440
2016-07-23T09:15:38.226Z,15528
2016-07-23T09:16:38.234Z,15740
2016-07-23T09:17:38.242Z,15888
2016-07-23T09:18:38.258Z,16516
2016-07-23T09:19:38.270Z,17664
2016-07-23T09:20:38.277Z,18784
2016-07-23T09:21:38.290Z,19456
2016-07-23T09:22:38.292Z,19040
2016-07-23T09:23:38.304Z,18368
2016-07-23T09:24:38.325Z,17920
2016-07-23T09:25:38.322Z,17888
2016-07-23T09:26:38.332Z,17856
2016-07-23T09:27:38.354Z,17696
2016-07-23T09:28:38.348Z,17696
2016-07-23T09:29:38.367Z,17632
2016-07-23T09:30:38.370Z,17472
2016-07-23T09:31:38.381Z,17152
2016-07-23T09:32:39.086Z,17024
2016-07-23T09:33:38.400Z,16840
2016-07-23T09:34:39.108Z,17056
2016-07-23T09:35:38.417Z,17504
2016-07-23T09:36:38.421Z,17952
2016-07-23T09:37:38.432Z,18464
2016-07-23T09:38:38.442Z,19136
2016-07-23T09:39:38.453Z,19744
2016-07-23T09:40:38.668Z,20480
2016-07-23T09:41:38.469Z,20480
2016-07-23T09:42:38.477Z,20192
2016-07-23T09:43:38.491Z,19776
2016-07-23T09:44:38.498Z,19936
2016-07-23T09:45:38.508Z,20480
2016-07-23T09:46:38.521Z,20544
2016-07-23T09:47:38.529Z,20608
2016-07-23T09:48:38.544Z,20256
2016-07-23T09:49:38.538Z,19936
2016-07-23T09:50:40.497Z,19712
2016-07-23T09:52:39.767Z,19840
2016-07-23T09:53:39.499Z,19648
2016-07-23T09:54:38.586Z,19712
2016-07-23T09:55:39.140Z,19808
2016-07-23T09:56:39.115Z,19904
2016-07-23T09:57:38.606Z,20160
2016-07-23T09:58:38.624Z,20768
2016-07-23T09:59:39.228Z,21600
2016-07-23T10:00:41.558Z,22400
2016-07-23T10:01:40.328Z,22816
2016-07-23T10:02:40.711Z,23072
2016-07-23T10:03:38.662Z,23264
2016-07-23T10:04:39.479Z,23328
2016-07-23T10:05:38.678Z,23424
2016-07-23T10:06:38.687Z,23360
2016-07-23T10:07:38.802Z,23296
2016-07-23T10:08:38.706Z,23168
2016-07-23T10:09:38.709Z,23072
2016-07-23T10:10:38.725Z,22944
2016-07-23T10:11:38.728Z,22848
2016-07-23T10:12:38.729Z,22880
2016-07-23T10:13:38.746Z,23008
2016-07-23T10:15:39.322Z,22880
2016-07-23T10:16:39.370Z,22592
2016-07-23T10:17:54.451Z,22560
2016-07-23T10:18:38.796Z,22528
2016-07-23T10:19:38.802Z,22688
2016-07-23T10:20:38.814Z,22272
2016-07-23T10:21:39.070Z,21696
2016-07-23T10:22:38.820Z,21568
2016-07-23T10:23:38.832Z,21696
2016-07-23T10:24:39.602Z,20864
2016-07-23T10:25:39.150Z,20448
2016-07-23T10:26:40.107Z,20000
2016-07-23T10:27:38.875Z,19584
2016-07-23T10:28:38.881Z,19776
2016-07-23T10:29:39.387Z,20064
2016-07-23T10:30:38.943Z,20032
2016-07-23T10:31:38.920Z,19840
2016-07-23T10:32:38.918Z,19712
2016-07-23T10:33:38.919Z,19904
2016-07-23T10:34:38.934Z,20032
2016-07-23T10:35:39.652Z,20064
2016-07-23T10:36:38.959Z,20320
2016-07-23T10:37:38.963Z,20192
2016-07-23T10:38:38.985Z,20128
2016-07-23T10:39:38.977Z,20704
2016-07-23T10:40:38.989Z,20864
2016-07-23T10:41:38.994Z,20864
2016-07-23T10:42:39.010Z,20832
2016-07-23T10:43:39.013Z,20224
2016-07-23T10:44:39.025Z,19584
2016-07-23T10:45:39.032Z,19040
2016-07-23T10:46:39.038Z,18912
2016-07-23T10:47:39.048Z,18944
2016-07-23T10:48:39.058Z,19040
2016-07-23T10:49:39.070Z,19584
2016-07-23T10:50:39.075Z,20256
2016-07-23T10:51:39.085Z,20416
2016-07-23T10:52:39.093Z,20320
2016-07-23T10:53:39.105Z,19168
2016-07-23T10:54:39.115Z,19104
2016-07-23T10:55:39.121Z,19424
2016-07-23T10:56:39.136Z,19712
2016-07-23T10:57:39.132Z,19776
2016-07-23T10:58:39.147Z,19680
2016-07-23T10:59:39.159Z,19712
2016-07-23T11:00:39.165Z,19040
2016-07-23T11:01:39.184Z,18496
2016-07-23T11:02:39.193Z,18144
2016-07-23T11:03:39.202Z,17600
2016-07-23T11:04:39.205Z,17472
2016-07-23T11:05:39.208Z,17248
2016-07-23T11:06:39.219Z,16896
2016-07-23T11:07:39.224Z,16296
2016-07-23T11:08:40.760Z,15204
2016-07-23T11:09:42.267Z,14696
2016-07-23T11:10:41.544Z,14236
2016-07-23T11:11:40.263Z,13868
2016-07-23T11:12:39.767Z,13724
2016-07-23T11:13:39.289Z,13984
2016-07-23T11:14:39.917Z,14192
2016-07-23T11:15:39.296Z,14688
2016-07-23T11:16:39.444Z,15420
2016-07-23T11:17:39.315Z,15684
2016-07-23T11:18:40.268Z,15588
2016-07-23T11:19:39.874Z,15972
2016-07-23T11:20:41.231Z,16248
2016-07-23T11:21:39.357Z,16228
2016-07-23T11:22:39.365Z,16300
2016-07-23T11:23:40.336Z,16800
2016-07-23T11:24:39.384Z,17152
2016-07-23T11:25:39.392Z,17408
2016-07-23T11:26:39.396Z,17760
2016-07-23T11:27:39.405Z,18080
2016-07-23T11:28:39.420Z,18144
2016-07-23T11:29:39.426Z,18208
2016-07-23T11:30:39.433Z,18272
2016-07-23T11:31:39.447Z,18400
2016-07-23T11:32:39.451Z,18656
2016-07-23T11:33:39.710Z,19008
2016-07-23T11:34:39.814Z,19456
2016-07-23T11:36:39.939Z,20192
2016-07-23T11:37:40.265Z,20704
2016-07-23T11:38:39.803Z,21024
2016-07-23T11:39:39.511Z,21152
2016-07-23T11:40:39.521Z,21120
2016-07-23T11:41:39.532Z,20896
2016-07-23T11:42:40.192Z,20512
2016-07-23T11:43:54.468Z,19936
2016-07-23T11:44:55.679Z,19840
2016-07-23T11:45:40.219Z,19648
2016-07-23T11:46:55.049Z,19552
2016-07-23T11:47:39.592Z,19520
2016-07-23T11:48:39.844Z,19808
2016-07-23T11:49:39.607Z,20480
2016-07-23T11:50:39.610Z,20640
2016-07-23T11:51:39.623Z,20608
2016-07-23T11:52:39.628Z,20544
2016-07-23T11:53:39.638Z,20064
2016-07-23T11:54:39.647Z,19584
2016-07-23T11:55:39.658Z,19232
2016-07-23T11:56:39.665Z,19680
2016-07-23T11:57:39.678Z,20128
2016-07-23T11:58:39.685Z,20320
2016-07-23T11:59:39.687Z,20672
2016-07-23T12:00:39.701Z,20704
2016-07-23T12:01:39.713Z,20320
2016-07-23T12:02:39.719Z,20000
2016-07-23T12:03:39.730Z,19968
2016-07-23T12:04:39.734Z,19904
2016-07-23T12:05:39.746Z,19872
2016-07-23T12:06:39.762Z,19968
2016-07-23T12:07:39.766Z,19552
2016-07-23T12:08:39.769Z,19264
2016-07-23T12:09:39.790Z,19200
2016-07-23T12:10:39.791Z,19392
2016-07-23T12:11:39.807Z,19296
2016-07-23T12:12:39.812Z,19264
2016-07-23T12:13:39.818Z,19424
2016-07-23T12:14:39.825Z,19520
2016-07-23T12:15:39.840Z,19392
2016-07-23T12:16:39.842Z,19136
2016-07-23T12:17:39.871Z,18912
2016-07-23T12:18:39.862Z,18880
2016-07-23T12:19:39.875Z,18848
2016-07-23T12:20:39.879Z,18592
2016-07-23T12:21:39.880Z,18368
2016-07-23T12:22:39.898Z,18336
2016-07-23T12:23:39.899Z,18592
2016-07-23T12:24:39.915Z,19232
2016-07-23T12:25:39.930Z,19936
2016-07-23T12:26:39.930Z,20640
2016-07-23T12:27:40.847Z,20896
2016-07-23T12:28:40.811Z,21248
2016-07-23T12:29:42.584Z,21696
2016-07-23T12:30:40.801Z,22112
2016-07-23T12:31:40.874Z,22368
2016-07-23T12:32:40.388Z,22496
2016-07-23T12:33:39.992Z,22560
2016-07-23T12:34:39.999Z,22240
2016-07-23T12:35:40.014Z,21824
2016-07-23T12:36:42.164Z,21472
2016-07-23T12:37:42.561Z,21408
2016-07-23T12:38:41.273Z,21216
2016-07-23T12:39:40.134Z,21088
2016-07-23T12:40:40.752Z,20864
2016-07-23T12:41:40.827Z,20480
2016-07-23T12:42:40.088Z,20032
2016-07-23T12:43:40.084Z,19392
2016-07-23T12:44:40.100Z,18784
2016-07-23T12:45:40.103Z,18368
2016-07-23T12:46:40.117Z,18080
2016-07-23T12:47:40.120Z,17888
2016-07-23T12:48:40.153Z,17888
2016-07-23T12:49:40.132Z,17952
2016-07-23T12:50:40.149Z,18272
2016-07-23T12:52:09.997Z,19040
2016-07-23T12:52:55.738Z,19456
2016-07-23T12:53:41.319Z,19744
2016-07-23T12:54:40.837Z,19968
2016-07-23T12:55:40.399Z,20096
2016-07-23T12:56:40.309Z,20224
2016-07-23T12:57:40.206Z,20416
2016-07-23T12:58:40.223Z,20640
2016-07-23T12:59:40.224Z,20992
2016-07-23T13:00:55.164Z,21376
2016-07-23T13:03:41.319Z,22080
2016-07-23T13:05:41.083Z,22784
2016-07-23T13:06:40.947Z,23232
2016-07-23T13:07:40.298Z,23616
2016-07-23T13:08:40.316Z,23936
2016-07-23T13:09:40.319Z,24256
2016-07-23T13:10:40.338Z,24416
2016-07-23T13:11:40.342Z,24416
2016-07-23T13:12:40.363Z,24320
2016-07-23T13:13:40.356Z,24256
2016-07-23T13:14:40.364Z,24160
2016-07-23T13:15:40.368Z,24064
2016-07-23T13:16:40.382Z,23968
2016-07-23T13:17:40.403Z,23872
2016-07-23T13:18:40.403Z,23712
2016-07-23T13:19:40.414Z,23488
2016-07-23T13:20:40.416Z,23264
2016-07-23T13:21:40.426Z,23072
2016-07-23T13:22:40.443Z,22944
2016-07-23T13:23:40.453Z,22848
2016-07-23T13:24:40.460Z,22784
2016-07-23T13:25:40.469Z,22720
2016-07-23T13:26:40.480Z,22656
2016-07-23T13:27:40.495Z,22496
2016-07-23T13:28:40.493Z,22368
2016-07-23T13:29:40.511Z,22240
2016-07-23T13:30:40.562Z,22176
2016-07-23T13:31:40.533Z,22080
2016-07-23T13:32:40.537Z,22016
2016-07-23T13:33:40.550Z,21920
2016-07-23T13:34:40.558Z,21920
2016-07-23T13:35:41.258Z,21920
2016-07-23T13:36:40.580Z,21984